Time;durP1;ratioP1;P1;durP2;ratioP2;P2;SDS_P1;SDS_P2;PMS_P1;PMS_P2;Temp;Humidity;BMP_temperature;BMP_pressure;BME280_temperature;BME280_humidity;BME280_pressure;Samples;Min_cycle;Max_cycle;Signal;HPM_P1;HPM_P2
2023/05/05 04:17:46;;;;;;;13.15;6.70;;;;;;;9.63;100.00;100774.88;5580727;31;226373;-86
2023/05/05 04:20:58;;;;;;;9.48;6.20;;;;;;;9.63;100.00;100774.88;5569258;32;33604;-86
2023/05/05 04:24:07;;;;;;;10.98;6.70;;;;;;;9.23;100.00;100774.62;5568610;32;34438;-86
2023/05/05 04:27:18;;;;;;;8.68;6.60;;;;;;;9.29;100.00;100768.22;5568084;32;33861;-86
2023/05/05 04:30:25;;;;;;;8.95;6.50;;;;;;;9.39;100.00;100777.53;5568439;32;34082;-86
2023/05/05 04:33:35;;;;;;;9.73;6.18;;;;;;;9.50;100.00;100771.81;5568047;32;35074;-87
2023/05/05 04:36:43;;;;;;;13.00;6.75;;;;;;;9.59;100.00;100783.00;5567660;32;34539;-86
2023/05/05 04:39:51;;;;;;;13.13;6.50;;;;;;;9.66;100.00;100781.84;5567216;32;34048;-86
2023/05/05 04:42:57;;;;;;;8.55;6.20;;;;;;;9.86;100.00;100785.47;5568282;32;34922;-86
2023/05/05 04:46:06;;;;;;;9.05;5.97;;;;;;;10.00;100.00;100785.75;5566180;32;33729;-87
2023/05/05 04:49:13;;;;;;;8.70;6.55;;;;;;;10.17;100.00;100794.81;5567005;32;33768;-90
2023/05/05 04:52:17;;;;;;;7.62;5.78;;;;;;;10.33;100.00;100787.97;5567097;32;33606;-90
2023/05/05 04:55:22;;;;;;;10.57;6.12;;;;;;;10.49;100.00;100790.84;5566140;32;34019;-85
2023/05/05 04:58:27;;;;;;;6.72;5.82;;;;;;;10.56;100.00;100799.37;5566302;32;33839;-84
2023/05/05 05:01:31;;;;;;;8.10;6.28;;;;;;;10.64;100.00;100812.34;5566304;32;33098;-85
2023/05/05 05:04:37;;;;;;;9.77;5.90;;;;;;;10.80;100.00;100809.87;5565120;32;35082;-86
2023/05/05 05:07:41;;;;;;;9.43;5.78;;;;;;;10.83;100.00;100809.75;5567913;32;33999;-84
2023/05/05 05:10:47;;;;;;;10.10;6.12;;;;;;;11.17;100.00;100813.53;5568778;32;34629;-86
2023/05/05 05:13:52;;;;;;;7.97;5.95;;;;;;;11.52;100.00;100820.81;5568617;32;33763;-84
2023/05/05 05:16:56;;;;;;;8.43;5.68;;;;;;;11.58;100.00;100814.38;5568199;32;33709;-84
2023/05/05 05:20:03;;;;;;;8.07;6.10;;;;;;;11.64;100.00;100811.44;5567226;32;34059;-84
2023/05/05 05:23:14;;;;;;;9.88;6.47;;;;;;;11.91;100.00;100812.84;5569342;32;34001;-84
2023/05/05 05:26:19;;;;;;;9.23;6.82;;;;;;;12.18;100.00;100809.78;5556586;32;33838;-84
2023/05/05 05:29:25;;;;;;;9.40;7.10;;;;;;;13.02;100.00;100814.38;5541892;32;34131;-84
2023/05/05 05:32:30;;;;;;;7.65;6.15;;;;;;;13.77;100.00;100810.37;5532802;32;34479;-85
2023/05/05 05:35:38;;;;;;;9.30;5.30;;;;;;;13.95;99.69;100823.63;5540822;32;33634;-85
2023/05/05 05:38:46;;;;;;;7.78;4.87;;;;;;;14.04;95.61;100825.78;5551711;32;33660;-85
2023/05/05 05:41:54;;;;;;;6.37;5.15;;;;;;;14.39;89.99;100833.53;5550384;32;34011;-85
2023/05/05 05:45:01;;;;;;;6.62;5.30;;;;;;;14.28;90.12;100823.50;5544077;32;33959;-86
2023/05/05 05:48:09;;;;;;;7.18;5.80;;;;;;;15.24;87.35;100834.75;5545835;32;33800;-86
2023/05/05 05:51:15;;;;;;;6.95;5.32;;;;;;;16.01;84.07;100828.19;5532354;32;33804;-86
2023/05/05 05:54:24;;;;;;;7.18;5.12;;;;;;;16.35;80.60;100835.78;5533798;32;34148;-87
2023/05/05 05:57:31;;;;;;;8.75;5.62;;;;;;;15.99;80.32;100835.47;5534475;32;34475;-86
2023/05/05 06:00:39;;;;;;;6.97;4.78;;;;;;;16.29;78.28;100835.25;5531992;32;33943;-86
2023/05/05 06:03:49;;;;;;;8.85;5.30;;;;;;;16.50;78.28;100834.75;5533198;32;34451;-86
2023/05/05 06:06:55;;;;;;;7.45;5.10;;;;;;;16.83;77.43;100837.91;5530666;32;34448;-92
2023/05/05 06:10:07;;;;;;;7.20;5.00;;;;;;;17.39;71.99;100831.38;5539450;32;35159;-88
2023/05/05 06:13:29;;;;;;;8.43;5.30;;;;;;;17.32;69.31;100844.38;5529090;32;34136;-88
2023/05/05 06:16:33;;;;;;;6.25;4.75;;;;;;;18.10;69.70;100838.00;5531364;32;34722;-88
2023/05/05 06:19:39;;;;;;;7.57;4.30;;;;;;;19.61;63.37;100837.22;5530699;32;33861;-89
2023/05/05 06:22:47;;;;;;;7.75;4.60;;;;;;;20.64;57.07;100844.97;5529331;32;34691;-89
2023/05/05 06:25:54;;;;;;;6.90;5.03;;;;;;;20.92;51.21;100832.69;5529493;32;33774;-88
2023/05/05 06:28:59;;;;;;;7.45;5.15;;;;;;;20.13;51.74;100828.53;5533832;32;33737;-88
2023/05/05 06:32:06;;;;;;;7.95;4.57;;;;;;;18.92;55.47;100830.94;5530203;32;33582;-87
2023/05/05 06:35:13;;;;;;;7.47;4.60;;;;;;;18.35;56.87;100826.25;5536277;32;33796;-88
2023/05/05 06:38:20;;;;;;;7.12;5.03;;;;;;;17.94;53.70;100827.50;5528911;32;34645;-88
2023/05/05 06:41:27;;;;;;;7.85;4.95;;;;;;;18.13;53.21;100824.31;5543350;32;33772;-88
2023/05/05 06:44:36;;;;;;;5.90;4.45;;;;;;;17.73;53.05;100820.91;5532832;32;34564;-87
2023/05/05 06:47:44;;;;;;;7.00;4.82;;;;;;;18.06;55.38;100818.56;5531611;32;33931;-85
2023/05/05 06:50:52;;;;;;;6.28;4.75;;;;;;;17.98;53.66;100818.22;5535319;32;33791;-85
2023/05/05 06:53:59;;;;;;;6.80;4.87;;;;;;;18.81;52.46;100815.63;5533334;32;34896;-86
2023/05/05 06:57:03;;;;;;;6.35;4.28;;;;;;;18.52;51.96;100822.28;5533436;32;33859;-87
2023/05/05 07:00:12;;;;;;;9.15;5.15;;;;;;;18.51;52.93;100814.34;5539684;32;33943;-84
2023/05/05 07:03:18;;;;;;;9.77;4.72;;;;;;;19.34;51.82;100819.59;5536183;32;33881;-84
2023/05/05 07:06:25;;;;;;;7.35;4.40;;;;;;;19.42;49.66;100814.47;5541965;32;33743;-84
2023/05/05 07:09:30;;;;;;;6.30;4.60;;;;;;;19.50;48.83;100822.78;5542595;32;34025;-85
2023/05/05 07:12:37;;;;;;;6.03;4.90;;;;;;;19.46;48.93;100818.62;5536286;32;33782;-88
2023/05/05 07:15:45;;;;;;;7.22;4.70;;;;;;;20.01;48.33;100811.59;5541052;32;32090;-89
2023/05/05 07:18:51;;;;;;;7.82;4.68;;;;;;;20.31;47.81;100818.06;5541161;32;33872;-84
2023/05/05 07:21:56;;;;;;;9.70;5.95;;;;;;;20.07;48.41;100824.53;5553591;32;33942;-85
2023/05/05 07:25:03;;;;;;;7.43;4.75;;;;;;;20.03;47.29;100815.00;5534057;32;33179;-85
2023/05/05 07:28:09;;;;;;;9.38;4.45;;;;;;;19.88;47.68;100817.94;5542254;32;34645;-85
2023/05/05 07:31:13;;;;;;;8.15;4.40;;;;;;;19.69;49.18;100810.53;5541364;32;33882;-84
2023/05/05 07:34:17;;;;;;;7.85;5.10;;;;;;;19.44;48.40;100817.03;5547600;32;34390;-83
2023/05/05 07:37:22;;;;;;;7.15;4.32;;;;;;;19.56;50.22;100810.66;5535378;32;32161;-84
2023/05/05 07:40:25;;;;;;;7.45;4.37;;;;;;;19.52;49.58;100811.91;5540117;32;34435;-84
2023/05/05 07:43:32;;;;;;;6.82;4.50;;;;;;;19.60;51.21;100809.44;5548649;32;34462;-84
2023/05/05 07:46:36;;;;;;;8.10;5.05;;;;;;;19.36;48.82;100805.06;5556088;32;34011;-82
2023/05/05 07:49:43;;;;;;;4.82;4.22;;;;;;;19.91;47.85;100811.44;5549316;32;34079;-83
2023/05/05 07:52:51;;;;;;;5.82;4.45;;;;;;;20.79;48.64;100808.62;5556509;32;33870;-83
2023/05/05 07:56:16;;;;;;;6.93;4.43;;;;;;;21.46;44.30;100810.94;5551108;32;33520;-83
2023/05/05 07:59:23;;;;;;;7.50;4.25;;;;;;;20.57;44.98;100821.22;5547622;32;34413;-84
2023/05/05 08:02:28;;;;;;;4.80;4.30;;;;;;;21.40;45.40;100803.37;5536415;32;33701;-84
2023/05/05 08:05:37;;;;;;;6.70;4.50;;;;;;;22.49;44.24;100813.34;5536341;32;33798;-84
2023/05/05 08:08:41;;;;;;;6.43;4.30;;;;;;;21.84;42.72;100810.34;5535662;32;34305;-83
2023/05/05 08:11:47;;;;;;;6.12;4.75;;;;;;;23.04;42.89;100808.28;5538453;32;34847;-85
2023/05/05 08:14:52;;;;;;;8.90;5.50;;;;;;;23.06;40.44;100808.09;5531242;32;33645;-83
2023/05/05 08:17:57;;;;;;;9.30;4.93;;;;;;;23.29;42.99;100805.91;5534184;32;31949;-84
2023/05/05 08:21:06;;;;;;;11.55;4.80;;;;;;;23.36;42.43;100808.88;5543127;32;34045;-84
2023/05/05 08:24:13;;;;;;;6.40;4.93;;;;;;;23.66;41.14;100802.31;5530015;32;33553;-83
2023/05/05 08:27:19;;;;;;;8.20;5.20;;;;;;;24.17;38.93;100796.41;5532408;32;34616;-87
2023/05/05 08:30:25;;;;;;;6.80;4.85;;;;;;;24.13;38.46;100795.00;5539210;32;33457;-88
2023/05/05 08:33:30;;;;;;;10.18;5.07;;;;;;;24.49;39.36;100799.56;5536270;32;34238;-90
2023/05/05 08:36:36;;;;;;;8.38;5.45;;;;;;;24.61;39.03;100809.13;5542056;32;34194;-87
2023/05/05 08:39:41;;;;;;;6.53;5.25;;;;;;;24.46;38.26;100803.44;5539245;32;33914;-85
2023/05/05 08:42:48;;;;;;;6.55;4.80;;;;;;;25.47;36.72;100802.13;5540289;32;34090;-86
2023/05/05 08:45:55;;;;;;;5.87;4.62;;;;;;;25.21;39.52;100803.06;5550692;32;33394;-86
2023/05/05 08:49:03;;;;;;;6.45;5.35;;;;;;;25.37;37.90;100807.69;5542099;32;34222;-86
2023/05/05 08:52:12;;;;;;;8.80;4.70;;;;;;;25.81;37.64;100801.25;5549616;32;33842;-87
2023/05/05 08:55:28;;;;;;;8.13;5.57;;;;;;;26.19;36.76;100798.09;5537878;32;34095;-85
2023/05/05 08:58:36;;;;;;;9.77;5.60;;;;;;;25.93;36.97;100794.47;5534053;32;33972;-86
2023/05/05 09:01:43;;;;;;;8.52;5.32;;;;;;;26.01;37.56;100790.06;5549100;32;33839;-85
2023/05/05 09:04:47;;;;;;;8.07;5.35;;;;;;;26.71;35.75;100788.72;5559245;32;34355;-86
2023/05/05 09:07:53;;;;;;;9.60;5.68;;;;;;;27.18;34.92;100788.94;5538529;32;34651;-85
2023/05/05 09:10:56;;;;;;;11.35;5.40;;;;;;;27.57;33.31;100790.81;5538913;32;34111;-85
2023/05/05 09:14:01;;;;;;;8.18;5.37;;;;;;;27.49;33.85;100792.75;5551038;32;34083;-86
2023/05/05 09:17:21;;;;;;;8.35;5.70;;;;;;;28.24;32.10;100788.53;5546156;32;34073;-86
2023/05/05 09:20:36;;;;;;;5.75;5.18;;;;;;;27.69;33.32;100785.84;5535173;32;34020;-85
2023/05/05 09:24:10;;;;;;;6.37;5.25;;;;;;;27.96;32.41;100774.59;5536131;32;33877;-85
2023/05/05 09:27:22;;;;;;;10.35;5.70;;;;;;;28.01;32.35;100777.62;5532830;32;34147;-90
2023/05/05 09:30:27;;;;;;;7.15;5.87;;;;;;;28.25;31.18;100771.12;5534203;32;34000;-86
2023/05/05 09:33:31;;;;;;;10.88;5.37;;;;;;;27.55;32.71;100762.87;5557596;32;33973;-86
2023/05/05 09:36:42;;;;;;;9.13;5.25;;;;;;;27.98;32.61;100762.47;5552835;32;33683;-86
2023/05/05 09:39:55;;;;;;;12.43;4.90;;;;;;;28.58;31.27;100764.53;5537879;32;34661;-86
2023/05/05 09:43:01;;;;;;;8.65;4.70;;;;;;;29.24;30.34;100757.47;5539120;32;33938;-84
2023/05/05 09:46:09;;;;;;;8.25;5.05;;;;;;;29.23;30.34;100757.66;5542628;32;34205;-84
2023/05/05 09:49:16;;;;;;;7.57;5.90;;;;;;;28.71;30.26;100761.12;5542120;32;34362;-84
2023/05/05 09:52:23;;;;;;;8.50;5.57;;;;;;;28.29;30.34;100752.53;5543315;32;35158;-84
2023/05/05 09:55:29;;;;;;;8.45;5.28;;;;;;;30.12;28.10;100744.78;5543744;32;34464;-85
2023/05/05 09:58:32;;;;;;;7.53;5.40;;;;;;;29.02;29.21;100748.38;5543701;32;33608;-84
2023/05/05 10:01:36;;;;;;;9.20;5.72;;;;;;;30.92;26.87;100754.63;5554646;32;34066;-84
2023/05/05 10:04:43;;;;;;;25.42;5.18;;;;;;;30.87;26.54;100749.72;5541622;32;33791;-84
2023/05/05 10:07:50;;;;;;;7.90;4.78;;;;;;;29.18;29.60;100750.03;5540340;32;33823;-85
2023/05/05 10:10:59;;;;;;;7.47;4.43;;;;;;;28.33;30.27;100740.22;5535794;32;33912;-84
2023/05/05 10:14:07;;;;;;;6.87;5.00;;;;;;;27.97;29.52;100741.66;5536376;32;33817;-83
2023/05/05 10:17:14;;;;;;;4.70;4.07;;;;;;;27.70;30.94;100737.59;5547442;32;34806;-83
2023/05/05 10:20:21;;;;;;;6.28;5.50;;;;;;;28.44;29.42;100740.78;5549844;32;33872;-84
2023/05/05 10:23:38;;;;;;;5.93;5.20;;;;;;;28.71;29.18;100752.13;5548702;32;33962;-83
2023/05/05 10:26:46;;;;;;;8.18;5.18;;;;;;;29.38;28.23;100739.34;5537050;32;34134;-84
2023/05/05 10:30:02;;;;;;;3.95;3.60;;;;;;;29.96;27.78;100735.75;5536856;32;33694;-83
2023/05/05 10:33:21;;;;;;;5.20;3.80;;;;;;;31.84;24.11;100735.13;5537931;32;34086;-84
2023/05/05 10:36:30;;;;;;;4.47;4.00;;;;;;;32.16;23.38;100734.50;5535775;32;33875;-83
2023/05/05 10:39:39;;;;;;;3.87;3.50;;;;;;;34.46;21.19;100726.03;5535033;32;33635;-84
2023/05/05 10:42:47;;;;;;;4.65;4.12;;;;;;;32.88;22.39;100731.00;5533134;32;33956;-84
2023/05/05 10:45:53;;;;;;;6.35;4.22;;;;;;;31.61;24.22;100705.31;5535432;32;33943;-83
2023/05/05 10:49:29;;;;;;;7.12;4.20;;;;;;;30.62;25.58;100708.28;5532362;32;33862;-84
2023/05/05 10:53:12;;;;;;;5.95;4.70;;;;;;;28.98;26.96;100706.94;5541907;32;34269;-84
2023/05/05 10:56:25;;;;;;;9.07;4.43;;;;;;;27.22;29.93;100696.84;5542067;32;34392;-85
2023/05/05 10:59:36;;;;;;;4.75;4.03;;;;;;;26.76;30.75;100691.06;5532964;32;34393;-84
2023/05/05 11:02:43;;;;;;;6.40;4.28;;;;;;;28.12;30.15;100689.06;5535109;32;33835;-85
2023/05/05 11:06:03;;;;;;;5.53;3.97;;;;;;;26.97;31.12;100686.97;5548293;32;34542;-89
2023/05/05 11:09:27;;;;;;;4.32;3.92;;;;;;;28.41;28.43;100683.88;5541215;32;32362;-86
2023/05/05 11:12:56;;;;;;;4.40;4.00;;;;;;;29.96;26.81;100681.06;5537108;32;34023;-85
2023/05/05 11:16:04;;;;;;;5.37;4.07;;;;;;;28.62;27.37;100678.50;5537497;32;33970;-86
2023/05/05 11:19:42;;;;;;;5.55;3.62;;;;;;;28.47;27.90;100672.22;5530731;32;33484;-87
2023/05/05 11:23:06;;;;;;;5.35;4.37;;;;;;;27.89;28.32;100672.75;5529088;32;34609;-87
2023/05/05 11:26:12;;;;;;;7.22;4.30;;;;;;;27.14;29.25;100670.50;5529368;32;34815;-86
2023/05/05 11:29:17;;;;;;;5.93;4.47;;;;;;;26.74;29.92;100659.62;5542737;32;33754;-86
2023/05/05 11:32:21;;;;;;;4.93;4.43;;;;;;;26.32;31.12;100664.34;5532990;32;34280;-87
2023/05/05 11:36:01;;;;;;;4.72;4.22;;;;;;;26.68;30.76;100658.47;5537738;32;33849;-87
2023/05/05 11:39:28;;;;;;;5.07;4.40;;;;;;;26.84;30.97;100646.66;5532114;32;33872;-87
2023/05/05 11:42:34;;;;;;;4.50;4.10;;;;;;;26.84;29.84;100649.38;5541605;32;33742;-87
2023/05/05 11:45:37;;;;;;;4.37;3.80;;;;;;;26.69;27.60;100648.44;5533971;32;33959;-86
2023/05/05 11:48:46;;;;;;;6.15;4.12;;;;;;;25.55;29.29;100637.37;5541013;32;34945;-86
2023/05/05 11:52:03;;;;;;;4.00;3.60;;;;;;;25.30;30.71;100636.50;5540714;32;33490;-86
2023/05/05 11:55:08;;;;;;;9.13;4.18;;;;;;;25.36;31.61;100633.09;5531471;32;34584;-86
2023/05/05 11:58:19;;;;;;;5.53;4.97;;;;;;;25.96;30.51;100622.09;5532710;32;32586;-87
2023/05/05 12:01:25;;;;;;;4.68;4.15;;;;;;;25.29;30.97;100622.06;5544119;32;33893;-85
2023/05/05 12:04:32;;;;;;;4.72;4.22;;;;;;;26.13;30.55;100620.19;5536297;32;33691;-86
2023/05/05 12:07:37;;;;;;;4.47;4.07;;;;;;;26.16;30.05;100625.28;5528210;32;34298;-86
2023/05/05 12:10:42;;;;;;;3.45;3.15;;;;;;;25.70;30.38;100626.69;5528342;32;33271;-86
2023/05/05 12:13:45;;;;;;;4.43;3.90;;;;;;;26.04;28.95;100611.19;5528046;32;33677;-87
2023/05/05 12:16:54;;;;;;;4.30;3.50;;;;;;;25.75;28.37;100618.00;5529178;32;33563;-86
2023/05/05 12:19:58;;;;;;;6.22;4.90;;;;;;;26.13;29.02;100616.63;5529653;32;33762;-86
2023/05/05 12:23:04;;;;;;;5.55;4.68;;;;;;;25.31;31.40;100602.87;5527743;32;34041;-86
2023/05/05 12:26:28;;;;;;;5.45;4.57;;;;;;;25.43;30.38;100592.53;5531114;32;34199;-86
2023/05/05 12:29:36;;;;;;;6.80;5.20;;;;;;;25.76;30.93;100600.72;5545167;32;34088;-90
2023/05/05 12:32:41;;;;;;;8.60;4.20;;;;;;;25.33;30.86;100603.56;5542579;32;33540;-87
2023/05/05 12:35:49;;;;;;;4.30;3.90;;;;;;;24.34;31.92;100590.53;5537986;32;34554;-86
2023/05/05 12:38:52;;;;;;;6.55;4.75;;;;;;;24.74;32.33;100586.28;5532714;32;33912;-85
2023/05/05 12:42:05;;;;;;;7.18;4.45;;;;;;;24.18;32.52;100585.87;5530532;32;34220;-85
2023/05/05 12:45:16;;;;;;;7.32;5.00;;;;;;;23.90;33.77;100588.72;5531062;32;34485;-87
2023/05/05 12:48:22;;;;;;;7.50;4.10;;;;;;;24.04;32.86;100588.12;5544885;32;34462;-87
2023/05/05 12:51:31;;;;;;;6.37;3.97;;;;;;;23.54;32.97;100584.22;5547415;32;35059;-87
2023/05/05 12:55:00;;;;;;;6.07;5.07;;;;;;;24.16;32.64;100587.88;5547147;32;33582;-85
2023/05/05 12:58:08;;;;;;;7.05;5.10;;;;;;;23.86;32.95;100581.91;5532423;32;34223;-85
2023/05/05 13:01:16;;;;;;;7.15;5.47;;;;;;;24.04;32.69;100577.28;5546431;32;34516;-85
2023/05/05 13:04:22;;;;;;;6.95;5.03;;;;;;;23.10;33.84;100571.44;5530110;32;33713;-85
2023/05/05 13:07:31;;;;;;;5.18;4.68;;;;;;;22.98;34.28;100562.72;5531237;32;33420;-84
2023/05/05 13:10:54;;;;;;;8.07;5.87;;;;;;;23.63;34.69;100560.78;5533970;32;33719;-83
2023/05/05 13:14:02;;;;;;;7.90;4.87;;;;;;;23.41;33.85;100563.81;5534024;32;33714;-83
2023/05/05 13:17:06;;;;;;;11.38;4.80;;;;;;;23.75;38.53;100553.22;5536618;32;34586;-82
2023/05/05 13:20:14;;;;;;;6.45;4.93;;;;;;;24.20;33.81;100554.03;5549047;32;34412;-82
2023/05/05 13:23:21;;;;;;;6.37;4.78;;;;;;;24.20;33.33;100551.34;5546586;32;33806;-86
2023/05/05 13:26:31;;;;;;;9.25;5.25;;;;;;;23.90;34.96;100548.94;5540887;32;34710;-84
2023/05/05 13:29:40;;;;;;;8.30;5.60;;;;;;;23.92;36.03;100536.09;5533385;32;33665;-83
2023/05/05 13:32:47;;;;;;;6.03;4.78;;;;;;;23.83;34.87;100535.19;5540806;32;34387;-84
2023/05/05 13:35:54;;;;;;;6.90;5.20;;;;;;;24.06;34.88;100526.50;5550295;32;34070;-83
2023/05/05 13:39:01;;;;;;;6.40;4.93;;;;;;;24.42;35.62;100522.78;5536132;32;33534;-84
2023/05/05 13:42:07;;;;;;;7.72;4.60;;;;;;;24.86;34.14;100513.62;5534720;32;33485;-83
2023/05/05 13:45:18;;;;;;;8.70;5.37;;;;;;;25.03;33.54;100514.47;5543657;32;33620;-83
2023/05/05 13:48:26;;;;;;;9.75;5.55;;;;;;;25.05;33.22;100516.19;5533744;32;33843;-83
2023/05/05 13:51:35;;;;;;;11.27;6.20;;;;;;;24.99;32.43;100518.53;5532582;32;34414;-82
2023/05/05 13:54:43;;;;;;;8.88;5.70;;;;;;;23.31;34.34;100516.19;5536457;32;34780;-83
2023/05/05 13:57:51;;;;;;;6.78;6.00;;;;;;;23.62;35.80;100513.88;5539467;32;34947;-83
2023/05/05 14:00:57;;;;;;;6.57;5.30;;;;;;;23.89;33.94;100513.88;5535252;32;34623;-84
2023/05/05 14:04:04;;;;;;;7.15;5.95;;;;;;;23.66;33.68;100511.72;5544249;32;33941;-83
2023/05/05 14:07:10;;;;;;;5.80;5.20;;;;;;;23.20;34.08;100510.00;5538345;32;34095;-84
2023/05/05 14:10:19;;;;;;;7.15;5.90;;;;;;;23.08;35.15;100498.53;5554404;32;34047;-84
2023/05/05 14:13:25;;;;;;;6.65;4.97;;;;;;;23.31;34.69;100503.50;5556706;32;33410;-84
2023/05/05 14:16:33;;;;;;;8.07;4.95;;;;;;;23.63;34.60;100499.34;5554321;32;34238;-84
2023/05/05 14:19:43;;;;;;;7.07;4.55;;;;;;;23.90;34.26;100497.47;5553804;32;34215;-84
2023/05/05 14:22:49;;;;;;;6.25;4.82;;;;;;;23.84;33.05;100503.53;5540882;32;32562;-84
2023/05/05 14:25:56;;;;;;;8.35;4.97;;;;;;;23.52;33.63;100500.47;5536591;32;33921;-85
2023/05/05 14:29:03;;;;;;;7.35;4.70;;;;;;;23.20;34.65;100496.47;5547153;32;33688;-88
2023/05/05 14:32:11;;;;;;;5.80;5.00;;;;;;;23.57;33.92;100497.25;5554985;32;33965;-89
2023/05/05 14:35:19;;;;;;;6.07;5.00;;;;;;;23.54;33.59;100493.00;5543915;32;33982;-85
2023/05/05 14:38:24;;;;;;;5.10;4.30;;;;;;;23.72;32.61;100488.56;5534562;32;33383;-85
2023/05/05 14:41:32;;;;;;;5.75;4.37;;;;;;;23.41;33.32;100490.75;5534679;32;34178;-85
2023/05/05 14:44:40;;;;;;;8.00;5.32;;;;;;;23.58;33.16;100493.53;5541713;32;34520;-85
2023/05/05 14:47:45;;;;;;;6.35;4.90;;;;;;;23.48;33.10;100496.34;5553131;32;34797;-85
2023/05/05 14:50:53;;;;;;;7.25;4.90;;;;;;;23.46;33.21;100478.56;5553363;32;34377;-85
2023/05/05 14:54:00;;;;;;;6.28;4.93;;;;;;;23.57;33.11;100486.44;5538886;32;34499;-86
2023/05/05 14:57:06;;;;;;;6.25;4.60;;;;;;;23.37;32.78;100478.53;5546814;32;34830;-84
2023/05/05 15:00:14;;;;;;;6.45;4.47;;;;;;;23.53;33.06;100479.66;5555075;32;33967;-84
2023/05/05 15:03:22;;;;;;;4.72;4.10;;;;;;;23.72;32.59;100478.56;5543155;32;33951;-84
2023/05/05 15:06:32;;;;;;;6.05;4.50;;;;;;;23.80;32.64;100477.78;5535635;32;35455;-84
